Time;durP1;ratioP1;P1;durP2;ratioP2;P2;SDS_P1;SDS_P2;PMS_P1;PMS_P2;Temp;Humidity;BMP_temperature;BMP_pressure;BME280_temperature;BME280_humidity;BME280_pressure;Samples;Min_cycle;Max_cycle;Signal;HPM_P1;HPM_P2
2022/06/22 00:01:50;;;;;;;0.50;0.50;;;;;;;-148.56;100.00;61375.16;5004793;28;20026;-36
2022/06/22 00:04:18;;;;;;;0.50;0.50;;;;;;;-148.56;100.00;61375.16;5003544;28;20064;-35
2022/06/22 00:06:48;;;;;;;0.43;0.43;;;;;;;-148.56;100.00;61375.16;5009100;28;20026;-35
2022/06/22 00:09:25;;;;;;;0.57;0.57;;;;;;;-148.56;100.00;61375.16;5007013;28;20038;-36
2022/06/22 00:11:51;;;;;;;0.63;0.40;;;;;;;-148.56;100.00;61375.16;5009652;28;20057;-35
2022/06/22 00:14:18;;;;;;;0.60;0.60;;;;;;;-148.56;100.00;61375.16;5006996;28;20103;-33
2022/06/22 00:16:48;;;;;;;0.50;0.50;;;;;;;-148.56;100.00;61375.16;5007689;28;20026;-35
2022/06/22 00:19:29;;;;;;;0.47;0.47;;;;;;;-148.56;100.00;61375.16;5003463;28;20171;-33
2022/06/22 00:21:54;;;;;;;0.50;0.50;;;;;;;-148.56;100.00;61375.16;5005518;28;20025;-34
2022/06/22 00:24:23;;;;;;;0.47;0.45;;;;;;;-148.56;100.00;61375.16;4990635;28;20080;-33
2022/06/22 00:27:07;;;;;;;0.43;0.43;;;;;;;-148.56;100.00;61375.16;5008505;28;21062;-35
2022/06/22 00:29:34;;;;;;;0.73;0.60;;;;;;;-148.56;100.00;61375.16;5007731;28;20269;-33
2022/06/22 00:32:15;;;;;;;0.45;0.45;;;;;;;-148.56;100.00;61375.16;5009311;28;20058;-32
2022/06/22 00:34:40;;;;;;;0.60;0.60;;;;;;;-148.56;100.00;61375.16;5005877;28;20022;-37
2022/06/22 00:37:12;;;;;;;0.50;0.50;;;;;;;-148.56;100.00;61375.16;5009709;28;20420;-35
2022/06/22 00:39:45;;;;;;;0.40;0.40;;;;;;;-148.56;100.00;61375.16;5009543;28;20071;-36
2022/06/22 00:42:18;;;;;;;4.03;0.60;;;;;;;-148.56;100.00;61375.16;5009854;28;20025;-37
2022/06/22 00:45:02;;;;;;;0.50;0.50;;;;;;;-148.56;100.00;61375.16;5010107;28;20037;-32
2022/06/22 00:47:37;;;;;;;0.60;0.60;;;;;;;-148.56;100.00;61375.16;5010203;28;20112;-30
2022/06/22 00:50:10;;;;;;;0.43;0.35;;;;;;;-148.56;100.00;61375.16;5009409;28;20029;-33
2022/06/22 00:52:47;;;;;;;0.60;0.60;;;;;;;-148.56;100.00;61375.16;5010542;28;20559;-33
2022/06/22 00:55:35;;;;;;;0.30;0.30;;;;;;;-148.56;100.00;61375.16;5003565;28;20484;-33
2022/06/22 00:58:04;;;;;;;0.50;0.50;;;;;;;-148.56;100.00;61375.16;5010061;28;20131;-37
2022/06/22 01:00:32;;;;;;;0.50;0.50;;;;;;;-148.56;100.00;61375.16;4999528;28;20073;-39
2022/06/22 01:03:24;;;;;;;0.40;0.40;;;;;;;-148.56;100.00;61375.16;4994433;28;20534;-37
2022/06/22 01:05:56;;;;;;;0.50;0.50;;;;;;;-148.56;100.00;61375.16;5006795;28;20037;-38
2022/06/22 01:08:39;;;;;;;0.50;0.50;;;;;;;-148.56;100.00;61375.16;5011395;28;20145;-37
2022/06/22 01:12:16;;;;;;;0.43;0.43;;;;;;;-148.56;100.00;61375.16;5007639;28;20017;-33
2022/06/22 01:13:53;;;;;;;0.52;0.50;;;;;;;-148.56;100.00;61375.16;5007141;28;20041;-34
2022/06/22 01:16:23;;;;;;;0.45;0.45;;;;;;;-148.56;100.00;61375.16;5008631;28;20044;-32
2022/06/22 01:19:05;;;;;;;0.40;0.40;;;;;;;-148.56;100.00;61375.16;4992574;28;20033;-34
2022/06/22 01:21:40;;;;;;;0.52;0.52;;;;;;;-148.56;100.00;61375.16;5008789;28;20290;-33
2022/06/22 01:24:37;;;;;;;0.68;0.60;;;;;;;-148.56;100.00;61375.16;5007768;28;20049;-35
2022/06/22 01:27:18;;;;;;;0.50;0.50;;;;;;;-148.56;100.00;61375.16;5011498;28;20036;-31
2022/06/22 01:29:51;;;;;;;0.50;0.43;;;;;;;-148.56;100.00;61375.16;5009529;28;20025;-33
2022/06/22 01:32:24;;;;;;;0.57;0.47;;;;;;;-148.56;100.00;61375.16;5007267;28;20041;-31
2022/06/22 01:34:51;;;;;;;1.02;0.60;;;;;;;-148.56;100.00;61375.16;5009301;28;20037;-35
2022/06/22 01:37:22;;;;;;;0.85;0.47;;;;;;;-148.56;100.00;61375.16;5010680;28;20128;-33
2022/06/22 01:39:47;;;;;;;0.55;0.55;;;;;;;-148.56;100.00;61375.16;4992970;28;20563;-34
2022/06/22 01:42:20;;;;;;;0.50;0.50;;;;;;;-148.56;100.00;61375.16;5007797;28;20136;-31
2022/06/22 01:44:49;;;;;;;0.50;0.50;;;;;;;-148.56;100.00;61375.16;5007201;28;20553;-34
2022/06/22 01:47:28;;;;;;;0.60;0.60;;;;;;;-148.56;100.00;61375.16;5009382;28;20041;-33
2022/06/22 01:50:38;;;;;;;0.40;0.40;;;;;;;-148.56;100.00;61375.16;5009737;28;20045;-33
2022/06/22 01:53:20;;;;;;;0.50;0.50;;;;;;;-148.56;100.00;61375.16;4989712;28;20047;-33
2022/06/22 01:55:52;;;;;;;0.85;0.68;;;;;;;-148.56;100.00;61375.16;5003643;28;20022;-33
2022/06/22 01:58:17;;;;;;;0.50;0.50;;;;;;;-148.56;100.00;61375.16;5010962;28;20049;-33
2022/06/22 02:00:43;;;;;;;0.50;0.50;;;;;;;-148.56;100.00;61375.16;5008346;28;20124;-34
2022/06/22 02:03:09;;;;;;;0.52;0.52;;;;;;;-148.56;100.00;61375.16;4993598;28;20109;-34
2022/06/22 02:05:57;;;;;;;1.05;0.60;;;;;;;-148.56;100.00;61375.16;5004782;28;20037;-36
2022/06/22 02:08:31;;;;;;;0.52;0.40;;;;;;;-148.56;100.00;61375.16;5011798;28;20040;-32
2022/06/22 02:11:01;;;;;;;0.45;0.45;;;;;;;-148.56;100.00;61375.16;5011376;28;20163;-32
2022/06/22 02:13:34;;;;;;;0.65;0.60;;;;;;;-148.56;100.00;61375.16;5006914;28;20029;-35
2022/06/22 02:16:15;;;;;;;0.47;0.47;;;;;;;-148.56;100.00;61375.16;5009010;28;20100;-34
2022/06/22 02:18:48;;;;;;;0.43;0.43;;;;;;;-148.56;100.00;61375.16;5008559;28;20029;-36
2022/06/22 02:21:16;;;;;;;0.60;0.60;;;;;;;-148.56;100.00;61375.16;5005019;28;20039;-30
2022/06/22 02:23:41;;;;;;;0.80;0.60;;;;;;;-148.56;100.00;61375.16;5004872;28;20500;-31
2022/06/22 02:26:09;;;;;;;0.90;0.60;;;;;;;-148.56;100.00;61375.16;5004594;28;20132;-34
2022/06/22 02:28:35;;;;;;;1.23;0.73;;;;;;;-148.56;100.00;61375.16;5011540;28;20768;-35
2022/06/22 02:31:00;;;;;;;0.50;0.50;;;;;;;-148.56;100.00;61375.16;5007276;28;20064;-34
2022/06/22 02:33:25;;;;;;;0.40;0.40;;;;;;;-148.56;100.00;61375.16;5005965;28;20029;-35
2022/06/22 02:35:51;;;;;;;0.52;0.52;;;;;;;-148.56;100.00;61375.16;5005949;28;20029;-35
2022/06/22 02:38:17;;;;;;;0.60;0.40;;;;;;;-148.56;100.00;61375.16;5005759;28;20033;-33
2022/06/22 02:46:15;;;;;;;0.60;0.60;;;;;;;-148.56;100.00;61375.16;4995475;28;20138;-34
2022/06/22 02:48:41;;;;;;;0.70;0.60;;;;;;;-148.56;100.00;61375.16;5007975;28;20584;-34
2022/06/22 02:51:24;;;;;;;0.75;0.57;;;;;;;-148.56;100.00;61375.16;5004651;28;20033;-34
2022/06/22 02:53:49;;;;;;;0.90;0.70;;;;;;;-148.56;100.00;61375.16;5008968;28;20412;-36
2022/06/22 02:56:20;;;;;;;0.75;0.75;;;;;;;-148.56;100.00;61375.16;5012054;28;20072;-33
2022/06/22 02:58:46;;;;;;;0.40;0.40;;;;;;;-148.56;100.00;61375.16;4991070;28;21021;-33
2022/06/22 03:01:14;;;;;;;0.50;0.50;;;;;;;-148.56;100.00;61375.16;5005084;28;20044;-34
2022/06/22 03:03:40;;;;;;;0.55;0.55;;;;;;;-148.56;100.00;61375.16;5004963;28;20822;-34
2022/06/22 03:06:05;;;;;;;0.80;0.60;;;;;;;-148.56;100.00;61375.16;5005379;28;20076;-31
2022/06/22 03:08:30;;;;;;;0.70;0.70;;;;;;;-148.56;100.00;61375.16;5011816;28;20030;-37
2022/06/22 03:11:03;;;;;;;0.50;0.50;;;;;;;-148.56;100.00;61375.16;5009350;28;20055;-35
2022/06/22 03:13:50;;;;;;;0.52;0.52;;;;;;;-148.56;100.00;61375.16;5008850;28;20033;-33
2022/06/22 03:16:26;;;;;;;0.60;0.60;;;;;;;-148.56;100.00;61375.16;5005500;28;20036;-39
2022/06/22 03:18:51;;;;;;;1.00;0.80;;;;;;;-148.56;100.00;61375.16;5005263;28;20021;-35
2022/06/22 03:21:16;;;;;;;0.60;0.60;;;;;;;-148.56;100.00;61375.16;4987233;28;20538;-34
2022/06/22 03:23:59;;;;;;;0.60;0.60;;;;;;;-148.56;100.00;61375.16;5006062;28;20766;-31
2022/06/22 03:26:49;;;;;;;0.52;0.52;;;;;;;-148.56;100.00;61375.16;5007337;28;20124;-36
2022/06/22 03:29:28;;;;;;;0.70;0.70;;;;;;;-148.56;100.00;61375.16;5011304;28;20684;-35
2022/06/22 03:32:02;;;;;;;0.60;0.60;;;;;;;-148.56;100.00;61375.16;5008924;28;20111;-34
2022/06/22 03:34:30;;;;;;;0.57;0.57;;;;;;;-148.56;100.00;61375.16;5005220;28;20036;-35
2022/06/22 03:37:01;;;;;;;0.70;0.70;;;;;;;-148.56;100.00;61375.16;4992829;28;20068;-36
2022/06/22 03:39:29;;;;;;;0.77;0.77;;;;;;;-148.56;100.00;61375.16;5001537;28;20471;-36
2022/06/22 03:41:58;;;;;;;0.50;0.50;;;;;;;-148.56;100.00;61375.16;4992427;28;20123;-35
2022/06/22 03:44:35;;;;;;;0.60;0.60;;;;;;;-148.56;100.00;61375.16;4993777;28;20033;-34
2022/06/22 03:47:05;;;;;;;0.95;0.75;;;;;;;-148.56;100.00;61375.16;5009833;28;20024;-36
2022/06/22 03:49:34;;;;;;;0.70;0.70;;;;;;;-148.56;100.00;61375.16;4999499;28;20128;-32
2022/06/22 03:52:18;;;;;;;0.90;0.70;;;;;;;-148.56;100.00;61375.16;4998873;28;20116;-37
2022/06/22 03:55:10;;;;;;;0.75;0.60;;;;;;;-148.56;100.00;61375.16;5007425;28;20918;-36
2022/06/22 03:57:39;;;;;;;0.50;0.50;;;;;;;-148.56;100.00;61375.16;5012372;28;20029;-33
2022/06/22 04:00:05;;;;;;;0.57;0.57;;;;;;;-148.56;100.00;61375.16;5010103;28;20033;-31
2022/06/22 04:02:31;;;;;;;0.60;0.60;;;;;;;-148.56;100.00;61375.16;5012095;28;20026;-34
2022/06/22 04:04:58;;;;;;;0.60;0.60;;;;;;;-148.56;100.00;61375.16;4994361;28;20040;-34
2022/06/22 04:07:24;;;;;;;0.50;0.50;;;;;;;-148.56;100.00;61375.16;5009912;28;20696;-34
2022/06/22 04:09:52;;;;;;;0.82;0.60;;;;;;;-148.56;100.00;61375.16;5012467;28;20053;-37
2022/06/22 04:12:27;;;;;;;0.70;0.70;;;;;;;-148.56;100.00;61375.16;5007269;28;20117;-34
2022/06/22 04:14:57;;;;;;;0.50;0.50;;;;;;;-148.56;100.00;61375.16;4996283;28;20750;-34
2022/06/22 04:17:42;;;;;;;0.60;0.60;;;;;;;-148.56;100.00;61375.16;5009457;28;20044;-32
2022/06/22 04:20:24;;;;;;;0.85;0.52;;;;;;;-148.56;100.00;61375.16;5010747;28;20087;-32
2022/06/22 04:22:52;;;;;;;0.60;0.60;;;;;;;-148.56;100.00;61375.16;4995621;28;20037;-35
2022/06/22 04:25:24;;;;;;;0.73;0.65;;;;;;;-148.56;100.00;61375.16;5014293;28;20439;-32
2022/06/22 04:27:50;;;;;;;0.52;0.52;;;;;;;-148.56;100.00;61375.16;5007744;28;20060;-37
2022/06/22 04:30:21;;;;;;;0.65;0.65;;;;;;;-148.56;100.00;61375.16;4993926;28;20030;-37
2022/06/22 04:32:58;;;;;;;0.50;0.50;;;;;;;-148.56;100.00;61375.16;4993767;28;20355;-32
2022/06/22 04:35:31;;;;;;;0.65;0.50;;;;;;;-148.56;100.00;61375.16;5006553;28;21129;-36
2022/06/22 04:38:26;;;;;;;0.50;0.50;;;;;;;-148.56;100.00;61375.16;4991017;28;20043;-31
2022/06/22 04:41:23;;;;;;;0.60;0.55;;;;;;;-148.56;100.00;61375.16;5007590;28;20022;-42
2022/06/22 04:43:48;;;;;;;0.70;0.70;;;;;;;-148.56;100.00;61375.16;5011733;28;20140;-32
2022/06/22 04:46:16;;;;;;;0.50;0.50;;;;;;;-148.56;100.00;61375.16;4993523;28;20560;-37
2022/06/22 04:48:46;;;;;;;0.50;0.47;;;;;;;-148.56;100.00;61375.16;5007583;28;20723;-36
2022/06/22 04:51:14;;;;;;;0.63;0.60;;;;;;;-148.56;100.00;61375.16;5011962;28;20715;-35
2022/06/22 04:53:43;;;;;;;0.55;0.55;;;;;;;-148.56;100.00;61375.16;5007667;28;20042;-33
2022/06/22 04:56:14;;;;;;;0.80;0.60;;;;;;;-148.56;100.00;61375.16;4995204;28;20021;-34
2022/06/22 04:58:39;;;;;;;;;;;;;;;-148.56;100.00;61375.16;5011333;28;20037;-36
2022/06/22 05:01:05;;;;;;;0.75;0.50;;;;;;;-148.56;100.00;61375.16;5008318;28;19925;-34
2022/06/22 05:03:30;;;;;;;0.57;0.47;;;;;;;-148.56;100.00;61375.16;5007787;28;20041;-36
2022/06/22 05:05:56;;;;;;;0.93;0.73;;;;;;;-148.56;100.00;61375.16;5009697;28;20032;-34
2022/06/22 05:08:53;;;;;;;0.70;0.70;;;;;;;-148.56;100.00;61375.16;4994325;28;20111;-31
2022/06/22 05:11:21;;;;;;;0.60;0.60;;;;;;;-148.56;100.00;61375.16;4992540;28;20414;-34
2022/06/22 05:13:54;;;;;;;0.70;0.70;;;;;;;-148.56;100.00;61375.16;4991499;28;20136;-36
2022/06/22 05:16:25;;;;;;;0.93;0.68;;;;;;;-148.56;100.00;61375.16;5012928;28;20065;-34
2022/06/22 05:18:51;;;;;;;0.98;0.60;;;;;;;-148.56;100.00;61375.16;5008086;28;20033;-34
2022/06/22 05:21:38;;;;;;;0.40;0.40;;;;;;;-148.56;100.00;61375.16;4985077;28;20529;-37
2022/06/22 05:24:24;;;;;;;0.52;0.52;;;;;;;-148.56;100.00;61375.16;5010721;28;20396;-34
2022/06/22 05:26:50;;;;;;;0.60;0.60;;;;;;;-148.56;100.00;61375.16;4992727;28;20097;-34
2022/06/22 05:29:21;;;;;;;0.70;0.70;;;;;;;-148.56;100.00;61375.16;5008460;28;20037;-35
2022/06/22 05:31:52;;;;;;;0.60;0.60;;;;;;;-148.56;100.00;61375.16;5016522;28;20029;-33
2022/06/22 05:34:31;;;;;;;0.60;0.60;;;;;;;-148.56;100.00;61375.16;4992798;28;20042;-35
2022/06/22 05:37:02;;;;;;;0.47;0.47;;;;;;;-148.56;100.00;61375.16;5011810;28;20032;-35
2022/06/22 05:39:27;;;;;;;0.60;0.60;;;;;;;-148.56;100.00;61375.16;4994313;28;20060;-34
2022/06/22 05:41:53;;;;;;;1.02;0.68;;;;;;;-148.56;100.00;61375.16;5011827;28;20623;-34
2022/06/22 05:44:19;;;;;;;0.50;0.50;;;;;;;-148.56;100.00;61375.16;5008774;28;20060;-33
2022/06/22 05:46:55;;;;;;;0.80;0.60;;;;;;;-148.56;100.00;61375.16;5006187;28;20059;-34
2022/06/22 05:49:24;;;;;;;0.95;0.50;;;;;;;-148.56;100.00;61375.16;5009354;28;20033;-36
2022/06/22 05:52:09;;;;;;;0.50;0.50;;;;;;;-148.56;100.00;61375.16;5023797;28;20033;-36
2022/06/22 05:54:51;;;;;;;0.50;0.50;;;;;;;-148.56;100.00;61375.16;5004222;28;20042;-33
2022/06/22 05:57:19;;;;;;;0.55;0.52;;;;;;;-148.56;100.00;61375.16;4987758;28;20049;-33
2022/06/22 05:59:53;;;;;;;0.80;0.80;;;;;;;-148.56;100.00;61375.16;5010040;28;20017;-36
2022/06/22 06:02:37;;;;;;;0.80;0.60;;;;;;;-148.56;100.00;61375.16;5005648;28;20648;-37
2022/06/22 06:05:22;;;;;;;0.50;0.50;;;;;;;-148.56;100.00;61375.16;5007635;28;20037;-34
2022/06/22 06:07:52;;;;;;;0.63;0.60;;;;;;;-148.56;100.00;61375.16;5009544;28;20060;-36
2022/06/22 06:10:42;;;;;;;0.70;0.60;;;;;;;-148.56;100.00;61375.16;5007859;28;20455;-34
2022/06/22 06:13:24;;;;;;;0.55;0.55;;;;;;;-148.56;100.00;61375.16;4998625;28;20208;-34
2022/06/22 06:15:55;;;;;;;0.50;0.50;;;;;;;-148.56;100.00;61375.16;5004108;28;20631;-34
2022/06/22 06:18:31;;;;;;;0.73;0.60;;;;;;;-148.56;100.00;61375.16;4993549;28;20535;-34
2022/06/22 06:21:07;;;;;;;0.60;0.57;;;;;;;-148.56;100.00;61375.16;5005332;28;20206;-31
2022/06/22 06:23:45;;;;;;;0.60;0.60;;;;;;;-148.56;100.00;61375.16;5011161;28;20664;-33
2022/06/22 06:29:45;;;;;;;0.50;0.50;;;;;;;-148.56;100.00;61375.16;5005898;28;20032;-30
2022/06/22 06:32:35;;;;;;;0.60;0.60;;;;;;;-148.56;100.00;61375.16;4996411;28;20037;-35
2022/06/22 06:35:02;;;;;;;0.50;0.50;;;;;;;-148.56;100.00;61375.16;5006970;28;20028;-31
2022/06/22 06:37:44;;;;;;;1.10;0.50;;;;;;;-148.56;100.00;61375.16;5002829;28;20598;-36
2022/06/22 06:40:15;;;;;;;0.70;0.70;;;;;;;-148.56;100.00;61375.16;5008450;28;20045;-32
2022/06/22 06:42:49;;;;;;;0.60;0.60;;;;;;;-148.56;100.00;61375.16;4991968;28;20028;-33
2022/06/22 06:45:16;;;;;;;0.70;0.70;;;;;;;-148.56;100.00;61375.16;5003079;28;20621;-33
2022/06/22 06:47:45;;;;;;;0.73;0.60;;;;;;;-148.56;100.00;61375.16;5010381;28;20045;-33
2022/06/22 06:50:20;;;;;;;0.82;0.70;;;;;;;-148.56;100.00;61375.16;5006873;28;20113;-35
2022/06/22 06:53:05;;;;;;;0.73;0.60;;;;;;;-148.56;100.00;61375.16;5011566;28;20442;-33
2022/06/22 06:55:39;;;;;;;0.50;0.50;;;;;;;-148.56;100.00;61375.16;5005850;28;20026;-34
2022/06/22 06:58:22;;;;;;;0.68;0.55;;;;;;;-148.56;100.00;61375.16;5007666;28;20022;-36
2022/06/22 07:00:47;;;;;;;0.60;0.60;;;;;;;-148.56;100.00;61375.16;5000058;28;20032;-33
2022/06/22 07:03:22;;;;;;;0.75;0.63;;;;;;;-148.56;100.00;61375.16;5008431;28;20026;-30
2022/06/22 07:05:48;;;;;;;0.60;0.60;;;;;;;-148.56;100.00;61375.16;5006055;28;20029;-36
2022/06/22 07:08:19;;;;;;;0.60;0.60;;;;;;;-148.56;100.00;61375.16;5005750;28;20107;-31
2022/06/22 07:10:50;;;;;;;0.57;0.57;;;;;;;-148.56;100.00;61375.16;5006463;28;20017;-35
2022/06/22 07:13:25;;;;;;;0.98;0.70;;;;;;;-148.56;100.00;61375.16;5008908;28;20062;-35
2022/06/22 07:15:54;;;;;;;1.20;0.77;;;;;;;-148.56;100.00;61375.16;4999401;28;20045;-33
2022/06/22 07:18:32;;;;;;;0.60;0.60;;;;;;;-148.56;100.00;61375.16;4988043;28;20249;-34
2022/06/22 07:21:14;;;;;;;0.73;0.70;;;;;;;-148.56;100.00;61375.16;4984026;28;20490;-36
2022/06/22 07:23:48;;;;;;;0.75;0.63;;;;;;;-148.56;100.00;61375.16;4997823;28;20570;-35
2022/06/22 07:26:20;;;;;;;0.98;0.90;;;;;;;-148.56;100.00;61375.16;5007347;28;20058;-34
2022/06/22 07:28:49;;;;;;;0.73;0.60;;;;;;;-148.56;100.00;61375.16;5003587;28;20713;-33
2022/06/22 07:31:23;;;;;;;0.60;0.60;;;;;;;-148.56;100.00;61375.16;4987900;28;20484;-37
2022/06/22 07:33:58;;;;;;;0.52;0.52;;;;;;;-148.56;100.00;61375.16;5003395;28;20036;-36
2022/06/22 07:36:48;;;;;;;0.70;0.70;;;;;;;-148.56;100.00;61375.16;5005100;28;20052;-30
2022/06/22 07:39:21;;;;;;;0.73;0.73;;;;;;;-148.56;100.00;61375.16;5005762;28;20242;-31
2022/06/22 07:41:47;;;;;;;0.70;0.60;;;;;;;-148.56;100.00;61375.16;4975572;28;20038;-34
2022/06/22 07:44:19;;;;;;;0.60;0.60;;;;;;;-148.56;100.00;61375.16;4982731;28;20021;-35
2022/06/22 07:47:01;;;;;;;1.05;0.68;;;;;;;-148.56;100.00;61375.16;4987721;28;20607;-33
2022/06/22 07:49:31;;;;;;;;;;;;;;;-148.56;100.00;61375.16;4986854;28;20513;-34
2022/06/22 07:51:58;;;;;;;0.70;0.70;;;;;;;-148.56;100.00;61375.16;4987282;28;19920;-33
2022/06/22 07:54:38;;;;;;;0.73;0.68;;;;;;;-148.56;100.00;61375.16;4987873;28;20147;-31
2022/06/22 07:57:22;;;;;;;0.65;0.40;;;;;;;-148.56;100.00;61375.16;4988141;28;20090;-38
2022/06/22 07:59:56;;;;;;;0.75;0.75;;;;;;;-148.56;100.00;61375.16;4995905;28;20037;-33
2022/06/22 08:02:31;;;;;;;0.63;0.60;;;;;;;-148.56;100.00;61375.16;4999469;28;20083;-36
2022/06/22 08:05:07;;;;;;;0.60;0.60;;;;;;;-148.56;100.00;61375.16;5022199;28;20029;-31
2022/06/22 08:07:53;;;;;;;0.52;0.52;;;;;;;-148.56;100.00;61375.16;5006197;28;20041;-32
2022/06/22 08:10:32;;;;;;;0.85;0.63;;;;;;;-148.56;100.00;61375.16;4991899;28;20033;-32
2022/06/22 08:13:16;;;;;;;0.60;0.60;;;;;;;-148.56;100.00;61375.16;5005341;28;20526;-32
2022/06/22 08:15:51;;;;;;;0.80;0.63;;;;;;;-148.56;100.00;61375.16;5005346;28;20097;-35
2022/06/22 08:18:16;;;;;;;0.47;0.47;;;;;;;-148.56;100.00;61375.16;4990223;28;20068;-33
2022/06/22 08:20:42;;;;;;;0.63;0.60;;;;;;;-148.56;100.00;61375.16;5006380;28;20769;-33
2022/06/22 08:23:12;;;;;;;0.60;0.60;;;;;;;-148.56;100.00;61375.16;5003045;28;20496;-35
2022/06/22 08:25:38;;;;;;;0.60;0.60;;;;;;;-148.56;100.00;61375.16;5004449;28;20033;-32
2022/06/22 08:28:04;;;;;;;0.60;0.60;;;;;;;-148.56;100.00;61375.16;5002713;28;20057;-37
2022/06/22 08:30:29;;;;;;;0.70;0.70;;;;;;;-148.56;100.00;61375.16;5004413;28;20083;-33
2022/06/22 08:32:59;;;;;;;0.77;0.70;;;;;;;-148.56;100.00;61375.16;4993037;28;20029;-33
2022/06/22 08:35:36;;;;;;;0.70;0.60;;;;;;;-148.56;100.00;61375.16;5006042;28;20029;-33
2022/06/22 08:38:10;;;;;;;2.15;0.77;;;;;;;-148.56;100.00;61375.16;5008724;28;20120;-38
2022/06/22 08:40:51;;;;;;;0.68;0.68;;;;;;;-148.56;100.00;61375.16;5011447;28;20088;-32
2022/06/22 08:43:43;;;;;;;0.70;0.70;;;;;;;-148.56;100.00;61375.16;5008980;28;20220;-30
2022/06/22 08:46:46;;;;;;;0.73;0.70;;;;;;;-148.56;100.00;61375.16;5008108;28;20423;-34
2022/06/22 08:49:17;;;;;;;0.77;0.75;;;;;;;-148.56;100.00;61375.16;5006666;28;20063;-34
2022/06/22 08:52:07;;;;;;;0.80;0.80;;;;;;;-148.56;100.00;61375.16;5007565;28;20029;-36
2022/06/22 08:54:44;;;;;;;0.73;0.70;;;;;;;-148.56;100.00;61375.16;5008241;28;20037;-32
2022/06/22 08:57:16;;;;;;;0.60;0.60;;;;;;;-148.56;100.00;61375.16;5010939;28;20124;-36
2022/06/22 09:00:00;;;;;;;0.70;0.70;;;;;;;-148.56;100.00;61375.16;4983539;28;20057;-38
2022/06/22 09:02:26;;;;;;;0.68;0.68;;;;;;;-148.56;100.00;61375.16;4966564;28;20501;-31
2022/06/22 09:05:06;;;;;;;0.60;0.60;;;;;;;-148.56;100.00;61375.16;4967348;28;21045;-36
2022/06/22 09:08:09;;;;;;;0.65;0.63;;;;;;;-148.56;100.00;61375.16;4965847;28;20860;-31
2022/06/22 09:10:37;;;;;;;0.75;0.75;;;;;;;-148.56;100.00;61375.16;4963186;28;20040;-34
2022/06/22 09:13:08;;;;;;;0.82;0.70;;;;;;;-148.56;100.00;61375.16;4972871;28;20033;-35
2022/06/22 09:15:55;;;;;;;0.85;0.65;;;;;;;-148.56;100.00;61375.16;4960188;28;20598;-36
2022/06/22 09:18:39;;;;;;;0.70;0.55;;;;;;;-148.56;100.00;61375.16;4966922;28;20128;-35
2022/06/22 09:21:16;;;;;;;0.57;0.55;;;;;;;-148.56;100.00;61375.16;4961961;28;20041;-32
2022/06/22 09:23:44;;;;;;;0.65;0.65;;;;;;;-148.56;100.00;61375.16;4965550;28;20038;-34
2022/06/22 09:26:12;;;;;;;0.68;0.68;;;;;;;-148.56;100.00;61375.16;4967320;28;20138;-30
2022/06/22 09:28:46;;;;;;;0.60;0.60;;;;;;;-148.56;100.00;61375.16;4970150;28;20048;-32
2022/06/22 09:31:18;;;;;;;0.75;0.73;;;;;;;-148.56;100.00;61375.16;4972744;28;20532;-33
2022/06/22 09:34:11;;;;;;;0.60;0.60;;;;;;;-148.56;100.00;61375.16;4961945;28;20067;-30
2022/06/22 09:36:53;;;;;;;0.50;0.50;;;;;;;-148.56;100.00;61375.16;4963855;28;20051;-33
2022/06/22 09:39:29;;;;;;;0.60;0.60;;;;;;;-148.56;100.00;61375.16;4963847;28;20562;-32
2022/06/22 09:42:32;;;;;;;1.58;0.68;;;;;;;-148.56;100.00;61375.16;4967824;28;20036;-35
2022/06/22 09:45:04;;;;;;;0.63;0.63;;;;;;;-148.56;100.00;61375.16;4960625;28;20037;-33
2022/06/22 09:47:51;;;;;;;0.70;0.68;;;;;;;-148.56;100.00;61375.16;4964854;28;20113;-34
2022/06/22 09:50:52;;;;;;;0.50;0.50;;;;;;;-148.56;100.00;61375.16;4974335;28;20033;-34
2022/06/22 09:53:33;;;;;;;0.70;0.63;;;;;;;-148.56;100.00;61375.16;4970253;28;20060;-35
2022/06/22 09:56:22;;;;;;;1.08;0.60;;;;;;;-148.56;100.00;61375.16;4971202;28;20057;-34
2022/06/22 09:59:06;;;;;;;0.70;0.60;;;;;;;-148.56;100.00;61375.16;4992591;28;20044;-37
2022/06/22 10:01:40;;;;;;;0.63;0.63;;;;;;;-148.56;100.00;61375.16;5008243;28;20036;-35
2022/06/22 10:04:23;;;;;;;0.50;0.50;;;;;;;-148.56;100.00;61375.16;5007447;28;20026;-31
2022/06/22 10:07:19;;;;;;;0.65;0.65;;;;;;;-148.56;100.00;61375.16;5008348;28;20032;-36
2022/06/22 10:09:44;;;;;;;0.70;0.70;;;;;;;-148.56;100.00;61375.16;5009444;28;20040;-34
2022/06/22 10:12:25;;;;;;;0.88;0.70;;;;;;;-148.56;100.00;61375.16;5006823;28;20615;-37
2022/06/22 10:15:09;;;;;;;0.60;0.60;;;;;;;-148.56;100.00;61375.16;5009056;28;20036;-33
2022/06/22 10:17:46;;;;;;;0.75;0.75;;;;;;;-148.56;100.00;61375.16;5004183;28;20026;-34
2022/06/22 10:20:17;;;;;;;0.98;0.80;;;;;;;-148.56;100.00;61375.16;5011235;28;20124;-37
2022/06/22 10:23:12;;;;;;;0.93;0.73;;;;;;;-148.56;100.00;61375.16;5005030;28;20025;-38
2022/06/22 10:25:51;;;;;;;1.33;0.70;;;;;;;-148.56;100.00;61375.16;5002744;28;20087;-31
2022/06/22 10:28:53;;;;;;;0.60;0.57;;;;;;;-148.56;100.00;61375.16;5010415;28;20040;-35
2022/06/22 10:31:27;;;;;;;0.70;0.70;;;;;;;-148.56;100.00;61375.16;5005538;28;20041;-33
2022/06/22 10:34:15;;;;;;;0.65;0.65;;;;;;;-148.56;100.00;61375.16;5005493;28;20071;-32
2022/06/22 10:36:46;;;;;;;0.50;0.50;;;;;;;-148.56;100.00;61375.16;5010462;28;20041;-35
2022/06/22 10:39:45;;;;;;;0.68;0.68;;;;;;;-148.56;100.00;61375.16;5007710;28;20036;-38
2022/06/22 10:45:26;;;;;;;0.50;0.50;;;;;;;-148.56;100.00;61375.16;5007357;28;20095;-38
2022/06/22 10:48:14;;;;;;;0.80;0.80;;;;;;;-148.56;100.00;61375.16;5006733;28;20566;-36
2022/06/22 10:51:30;;;;;;;0.70;0.70;;;;;;;-148.56;100.00;61375.16;5006939;28;20045;-36
2022/06/22 10:54:14;;;;;;;0.82;0.80;;;;;;;-148.56;100.00;61375.16;4924571;28;20039;-33
2022/06/22 10:57:05;;;;;;;0.60;0.60;;;;;;;-148.56;100.00;61375.16;4928627;28;20042;-37
2022/06/22 10:59:33;;;;;;;0.60;0.60;;;;;;;-148.56;100.00;61375.16;4991463;28;20037;-41
2022/06/22 11:02:20;;;;;;;0.85;0.60;;;;;;;-148.56;100.00;61375.16;5005544;28;20044;-32
2022/06/22 11:05:33;;;;;;;0.68;0.57;;;;;;;-148.56;100.00;61375.16;5009455;28;20874;-33
2022/06/22 11:08:19;;;;;;;0.90;0.77;;;;;;;-148.56;100.00;61375.16;4945323;28;20122;-33
2022/06/22 11:11:01;;;;;;;0.70;0.70;;;;;;;-148.56;100.00;61375.16;5008117;28;20331;-31
2022/06/22 11:13:45;;;;;;;0.60;0.60;;;;;;;-148.56;100.00;61375.16;5006993;28;20033;-30
2022/06/22 11:16:14;;;;;;;0.57;0.50;;;;;;;-148.56;100.00;61375.16;5003471;28;22150;-30
2022/06/22 11:19:01;;;;;;;1.02;0.80;;;;;;;-148.56;100.00;61375.16;5010339;28;20036;-33
2022/06/22 11:21:37;;;;;;;0.80;0.80;;;;;;;-148.56;100.00;61375.16;5002059;28;20713;-32
2022/06/22 11:24:24;;;;;;;0.60;0.60;;;;;;;-148.56;100.00;61375.16;5008002;28;20068;-33
2022/06/22 11:33:08;;;;;;;0.90;0.80;;;;;;;-148.56;100.00;61375.16;4985006;28;20022;-34
2022/06/22 11:35:47;;;;;;;0.63;0.63;;;;;;;-148.56;100.00;61375.16;5005687;28;20391;-36
2022/06/22 11:38:35;;;;;;;1.48;0.80;;;;;;;-148.56;100.00;61375.16;5005077;28;20112;-36
2022/06/22 11:41:32;;;;;;;0.95;0.80;;;;;;;-148.56;100.00;61375.16;5007045;28;20106;-34
2022/06/22 11:44:27;;;;;;;0.88;0.70;;;;;;;-148.56;100.00;61375.16;5004902;28;20025;-34
2022/06/22 11:46:56;;;;;;;0.90;0.80;;;;;;;-148.56;100.00;61375.16;5025302;28;20029;-34
2022/06/22 11:49:44;;;;;;;0.73;0.73;;;;;;;-148.56;100.00;61375.16;5006858;28;20039;-34
2022/06/22 11:52:28;;;;;;;1.42;0.70;;;;;;;-148.56;100.00;61375.16;5008358;28;20124;-35
2022/06/22 11:54:54;;;;;;;0.80;0.80;;;;;;;-148.56;100.00;61375.16;5008868;28;20030;-41
2022/06/22 11:57:48;;;;;;;0.70;0.70;;;;;;;-148.56;100.00;61375.16;5010905;28;20056;-36
2022/06/22 12:00:24;;;;;;;1.33;1.00;;;;;;;-148.56;100.00;61375.16;4977481;28;20042;-36
2022/06/22 12:03:14;;;;;;;0.70;0.70;;;;;;;-148.56;100.00;61375.16;4999794;28;20032;-35
2022/06/22 12:05:48;;;;;;;0.75;0.73;;;;;;;-148.56;100.00;61375.16;5010644;28;20025;-38
2022/06/22 12:08:51;;;;;;;1.85;1.00;;;;;;;-148.56;100.00;61375.16;5012535;28;20047;-34